createdAt,value
2017-09-22T00:00:48.220Z,41.93
2017-09-22T00:03:15.644Z,39.87
2017-09-22T00:05:43.839Z,43.60
2017-09-22T00:08:11.277Z,50.07
2017-09-22T00:10:39.469Z,43.53
2017-09-22T00:13:06.895Z,44.67
2017-09-22T00:15:34.319Z,41.17
2017-09-22T00:18:01.738Z,43.30
2017-09-22T00:20:29.183Z,41.17
2017-09-22T00:22:57.371Z,46.33
2017-09-22T00:25:25.698Z,42.77
2017-09-22T00:27:54.662Z,52.67
2017-09-22T00:30:22.833Z,43.50
2017-09-22T00:32:50.674Z,40.20
2017-09-22T00:35:18.156Z,43.40
2017-09-22T00:37:45.580Z,45.07
2017-09-22T00:40:13.766Z,53.67
2017-09-22T00:42:41.271Z,43.83
2017-09-22T00:45:08.719Z,45.20
2017-09-22T00:47:36.156Z,45.20
2017-09-22T00:50:03.567Z,47.20
2017-09-22T00:52:31.068Z,44.57
2017-09-22T00:54:59.090Z,54.60
2017-09-22T00:57:27.281Z,47.87
2017-09-22T00:59:54.695Z,56.13
2017-09-22T01:02:22.127Z,41.90
2017-09-22T01:04:49.540Z,47.40
2017-09-22T01:07:17.740Z,42.93
2017-09-22T01:09:45.158Z,43.63
2017-09-22T01:12:13.351Z,42.70
2017-09-22T01:14:41.536Z,56.20
2017-09-22T01:17:08.951Z,46.30
2017-09-22T01:19:36.754Z,45.20
2017-09-22T01:22:04.179Z,41.53
2017-09-22T01:24:33.130Z,49.07
2017-09-22T01:27:00.539Z,45.93
2017-09-22T01:29:28.754Z,46.17
2017-09-22T01:31:56.176Z,44.73
2017-09-22T01:34:24.396Z,44.40
2017-09-22T01:36:51.795Z,47.63
2017-09-22T01:39:20.007Z,44.00
2017-09-22T01:41:47.432Z,54.20
2017-09-22T01:44:15.639Z,51.10
2017-09-22T01:46:43.109Z,43.13
2017-09-22T01:49:10.571Z,43.17
2017-09-22T01:51:37.992Z,45.00
2017-09-22T01:54:05.415Z,46.67
2017-09-22T01:56:33.598Z,45.53
2017-09-22T01:59:01.784Z,48.33
2017-09-22T02:01:29.267Z,49.83
2017-09-22T02:03:56.682Z,49.00
2017-09-22T02:06:24.913Z,45.50
2017-09-22T02:08:52.340Z,49.27
2017-09-22T02:11:19.815Z,47.67
2017-09-22T02:13:47.242Z,43.50
2017-09-22T02:16:15.426Z,48.27
2017-09-22T02:18:42.848Z,46.33
2017-09-22T02:21:10.273Z,44.93
2017-09-22T02:23:37.704Z,47.67
2017-09-22T02:26:05.106Z,47.43
2017-09-22T02:28:32.540Z,43.87
2017-09-22T02:30:59.960Z,46.20
2017-09-22T02:33:27.380Z,43.63
2017-09-22T02:35:54.883Z,52.20
2017-09-22T02:38:22.342Z,45.40
2017-09-22T02:40:49.763Z,50.33
2017-09-22T02:43:17.939Z,45.50
2017-09-22T02:45:46.149Z,43.83
2017-09-22T02:48:13.570Z,44.20
2017-09-22T02:50:42.158Z,45.83
2017-09-22T02:55:43.243Z,53.20
2017-09-22T02:58:10.670Z,54.03
2017-09-22T03:00:38.886Z,49.57
2017-09-22T03:03:06.310Z,46.47
2017-09-22T03:05:33.731Z,46.53
2017-09-22T03:08:01.166Z,48.10
2017-09-22T03:10:28.583Z,47.40
2017-09-22T03:12:56.055Z,46.80
2017-09-22T03:15:23.495Z,44.73
2017-09-22T03:17:50.915Z,50.73
2017-09-22T03:20:18.431Z,50.80
2017-09-22T03:22:45.846Z,46.80
2017-09-22T03:25:14.027Z,44.50
2017-09-22T03:27:41.451Z,56.27
2017-09-22T03:30:08.871Z,43.60
2017-09-22T03:32:36.334Z,49.03
2017-09-22T03:35:04.194Z,48.10
2017-09-22T03:37:31.615Z,50.33
2017-09-22T03:39:59.801Z,45.53
2017-09-22T03:42:28.095Z,48.03
2017-09-22T03:44:55.526Z,46.80
2017-09-22T03:47:22.947Z,49.67
2017-09-22T03:49:50.367Z,48.50
2017-09-22T03:52:17.820Z,44.80
2017-09-22T03:54:45.255Z,69.50
2017-09-22T03:57:13.432Z,46.80
2017-09-22T03:59:40.846Z,50.67
2017-09-22T04:02:08.271Z,53.07
2017-09-22T04:04:35.695Z,49.00
2017-09-22T04:07:03.867Z,47.70
2017-09-22T04:09:31.286Z,49.50
2017-09-22T04:11:59.474Z,63.63
2017-09-22T04:14:27.650Z,44.77
2017-09-22T04:16:55.831Z,51.47
2017-09-22T04:19:24.021Z,46.23
2017-09-22T04:21:51.435Z,45.10
2017-09-22T04:24:19.159Z,52.03
2017-09-22T04:26:46.574Z,47.37
2017-09-22T04:29:14.767Z,50.73
2017-09-22T04:31:42.187Z,45.07
2017-09-22T04:34:10.387Z,55.50
2017-09-22T04:36:38.575Z,49.90
2017-09-22T04:39:05.987Z,48.70
2017-09-22T04:41:34.910Z,52.43
2017-09-22T04:44:02.338Z,49.97
2017-09-22T04:46:29.848Z,51.10
2017-09-22T04:48:57.271Z,55.10
2017-09-22T04:51:25.480Z,54.33
2017-09-22T04:53:52.907Z,57.40
2017-09-22T04:56:21.125Z,53.33
2017-09-22T04:58:48.530Z,50.30
2017-09-22T05:01:16.711Z,60.67
2017-09-22T05:03:44.135Z,53.50
2017-09-22T05:06:11.555Z,54.77
2017-09-22T05:08:39.013Z,59.70
2017-09-22T05:11:06.414Z,53.87
2017-09-22T05:13:34.598Z,54.17
2017-09-22T05:16:02.787Z,52.00
2017-09-22T05:18:30.227Z,52.07
2017-09-22T05:20:58.915Z,52.43
2017-09-22T05:23:27.123Z,52.73
2017-09-22T05:25:54.538Z,55.87
2017-09-22T05:28:22.843Z,51.80
2017-09-22T05:30:51.099Z,52.43
2017-09-22T05:33:19.278Z,52.40
2017-09-22T05:35:46.704Z,53.20
2017-09-22T05:38:15.627Z,55.30
2017-09-22T05:40:43.049Z,53.23
2017-09-22T05:43:10.470Z,55.47
2017-09-22T05:45:37.920Z,50.50
2017-09-22T05:48:05.330Z,50.80
2017-09-22T05:50:33.543Z,50.70
2017-09-22T05:53:00.966Z,46.27
2017-09-22T05:55:29.183Z,50.73
2017-09-22T05:57:56.596Z,52.80
2017-09-22T06:00:24.779Z,51.30
2017-09-22T06:02:52.967Z,51.53
2017-09-22T06:05:20.392Z,60.50
2017-09-22T06:07:47.823Z,55.13
2017-09-22T06:10:15.253Z,52.30
2017-09-22T06:12:42.715Z,48.50
2017-09-22T06:15:10.164Z,55.10
2017-09-22T06:17:38.474Z,56.27
2017-09-22T06:20:06.668Z,54.50
2017-09-22T06:22:34.852Z,56.07
2017-09-22T06:25:03.039Z,51.20
2017-09-22T06:27:31.207Z,46.93
2017-09-22T06:29:58.629Z,48.13
2017-09-22T06:32:26.043Z,47.00
2017-09-22T06:34:53.467Z,48.77
2017-09-22T06:37:21.682Z,48.63
2017-09-22T06:39:49.081Z,54.97
2017-09-22T06:42:16.496Z,54.70
2017-09-22T06:44:43.920Z,51.97
2017-09-22T06:47:12.103Z,52.73
2017-09-22T06:49:39.535Z,50.30
2017-09-22T06:52:07.840Z,48.10
2017-09-22T06:54:35.309Z,52.60
2017-09-22T06:57:02.724Z,47.93
2017-09-22T06:59:30.912Z,45.67
2017-09-22T07:01:59.111Z,49.17
2017-09-22T07:04:26.569Z,48.43
2017-09-22T07:06:53.980Z,47.60
2017-09-22T07:09:22.159Z,51.97
2017-09-22T07:11:50.364Z,42.97
2017-09-22T07:14:17.778Z,45.87
2017-09-22T07:16:45.199Z,57.27
2017-09-22T07:19:12.611Z,50.73
2017-09-22T07:21:40.038Z,50.53
2017-09-22T07:24:08.226Z,51.90
2017-09-22T07:26:36.418Z,46.47
2017-09-22T07:29:03.831Z,46.37
2017-09-22T07:31:32.762Z,50.03
2017-09-22T07:34:00.262Z,43.90
2017-09-22T07:36:27.659Z,48.53
2017-09-22T07:38:56.195Z,46.47
2017-09-22T07:41:23.611Z,43.47
2017-09-22T07:43:51.791Z,43.63
2017-09-22T07:46:19.691Z,44.27
2017-09-22T07:48:47.094Z,43.63
2017-09-22T07:51:15.279Z,41.57
2017-09-22T07:53:42.702Z,45.90
2017-09-22T07:56:10.227Z,41.97
2017-09-22T07:58:37.672Z,59.40
2017-09-22T08:01:05.097Z,44.40
2017-09-22T08:03:34.131Z,46.23
2017-09-22T08:06:01.554Z,51.20
2017-09-22T08:08:28.972Z,42.97
2017-09-22T08:10:56.392Z,41.93
2017-09-22T08:13:23.842Z,38.37
2017-09-22T08:15:52.118Z,46.00
2017-09-22T08:18:19.539Z,51.07
2017-09-22T08:20:47.782Z,49.43
2017-09-22T08:23:15.199Z,51.97
2017-09-22T08:25:42.667Z,64.47
2017-09-22T08:28:10.086Z,45.33
2017-09-22T08:30:38.266Z,36.73
2017-09-22T08:33:06.487Z,37.23
2017-09-22T08:35:33.898Z,44.93
2017-09-22T08:38:02.084Z,40.83
2017-09-22T08:40:30.259Z,33.30
2017-09-22T08:42:57.770Z,40.10
2017-09-22T08:45:25.188Z,36.33
2017-09-22T08:47:52.623Z,31.60
2017-09-22T08:50:20.102Z,38.97
2017-09-22T08:52:47.492Z,37.57
2017-09-22T08:55:14.906Z,39.37
2017-09-22T08:57:42.337Z,36.87
2017-09-22T09:00:10.531Z,43.07
2017-09-22T09:02:37.947Z,34.23
2017-09-22T09:05:05.368Z,37.03
2017-09-22T09:07:32.807Z,33.13
2017-09-22T09:10:00.259Z,33.70
2017-09-22T09:12:27.826Z,36.03
2017-09-22T09:14:55.239Z,39.53
2017-09-22T09:17:22.651Z,38.07
2017-09-22T09:19:50.086Z,37.70
2017-09-22T09:22:17.548Z,37.17
2017-09-22T09:24:44.959Z,45.20
2017-09-22T09:27:13.145Z,41.47
2017-09-22T09:29:41.327Z,35.53
2017-09-22T09:32:09.524Z,33.30
2017-09-22T09:34:36.971Z,30.33
2017-09-22T09:37:04.439Z,31.20
2017-09-22T09:39:31.852Z,30.07
2017-09-22T09:41:59.258Z,33.67
2017-09-22T09:44:26.667Z,30.00
2017-09-22T09:46:54.853Z,35.20
2017-09-22T09:49:23.030Z,37.67
2017-09-22T09:51:50.447Z,37.63
2017-09-22T09:54:18.623Z,36.57
2017-09-22T09:56:46.060Z,33.90
2017-09-22T09:59:13.492Z,38.47
2017-09-22T10:01:40.949Z,32.23
2017-09-22T10:04:09.307Z,32.60
2017-09-22T10:06:36.731Z,46.27
2017-09-22T10:09:04.147Z,36.30
2017-09-22T10:11:31.601Z,32.13
2017-09-22T10:13:59.024Z,40.83
2017-09-22T10:16:27.207Z,38.57
2017-09-22T10:18:54.683Z,33.80
2017-09-22T10:21:22.099Z,33.57
2017-09-22T10:23:50.284Z,36.33
2017-09-22T10:26:17.771Z,34.40
2017-09-22T10:28:45.190Z,32.03
2017-09-22T10:31:13.382Z,41.90
2017-09-22T10:33:40.795Z,30.87
2017-09-22T10:36:09.026Z,35.10
2017-09-22T10:38:36.485Z,34.60
2017-09-22T10:41:03.946Z,35.47
2017-09-22T10:43:31.402Z,31.00
2017-09-22T10:45:58.823Z,33.20
2017-09-22T10:48:27.011Z,33.03
2017-09-22T10:50:54.499Z,30.43
2017-09-22T10:53:21.917Z,35.90
2017-09-22T10:55:49.331Z,45.27
2017-09-22T10:58:16.748Z,29.30
2017-09-22T11:00:44.166Z,28.70
2017-09-22T11:03:12.374Z,30.23
2017-09-22T11:05:39.799Z,41.97
2017-09-22T11:08:08.008Z,31.30
2017-09-22T11:10:35.423Z,32.67
2017-09-22T11:13:03.635Z,38.80
2017-09-22T11:15:31.048Z,32.00
2017-09-22T11:17:59.230Z,29.97
2017-09-22T11:20:27.466Z,31.20
2017-09-22T11:22:54.867Z,33.10
2017-09-22T11:25:23.050Z,30.27
2017-09-22T11:27:50.539Z,38.00
2017-09-22T11:30:17.951Z,31.27
2017-09-22T11:32:46.151Z,34.13
2017-09-22T11:35:13.612Z,26.77
2017-09-22T11:37:41.177Z,31.80
2017-09-22T11:40:08.574Z,23.87
2017-09-22T11:42:36.291Z,26.17
2017-09-22T11:45:03.704Z,27.13
2017-09-22T11:47:31.895Z,24.63
2017-09-22T11:50:00.071Z,26.00
2017-09-22T11:52:27.497Z,23.27
2017-09-22T11:54:55.004Z,24.60
2017-09-22T11:57:22.418Z,25.00
2017-09-22T11:59:49.840Z,27.17
2017-09-22T12:02:17.480Z,25.67
2017-09-22T12:04:44.903Z,28.80
2017-09-22T12:07:13.447Z,28.30
2017-09-22T12:09:40.863Z,26.13
2017-09-22T12:12:08.284Z,28.43
2017-09-22T12:14:36.503Z,22.50
2017-09-22T12:17:03.918Z,29.50
2017-09-22T12:19:32.117Z,23.17
2017-09-22T12:21:59.592Z,18.73
2017-09-22T12:24:27.038Z,20.30
2017-09-22T12:26:54.470Z,19.50
2017-09-22T12:29:22.651Z,22.53
2017-09-22T12:31:50.143Z,14.40
2017-09-22T12:34:17.591Z,17.90
2017-09-22T12:36:45.007Z,14.33
2017-09-22T12:39:13.203Z,19.83
2017-09-22T12:41:40.687Z,15.23
2017-09-22T12:44:08.099Z,17.20
2017-09-22T12:46:36.291Z,17.97
2017-09-22T12:49:03.769Z,21.03
2017-09-22T12:51:31.191Z,13.73
2017-09-22T12:53:59.384Z,14.90
2017-09-22T12:56:26.803Z,23.63
2017-09-22T12:58:55.044Z,16.07
2017-09-22T13:01:22.463Z,14.70
2017-09-22T13:03:50.023Z,16.47
2017-09-22T13:06:17.430Z,16.60
2017-09-22T13:08:44.848Z,17.13
2017-09-22T13:11:12.264Z,14.93
2017-09-22T13:13:40.450Z,16.67
2017-09-22T13:16:08.642Z,15.23
2017-09-22T13:18:36.055Z,11.70
2017-09-22T13:21:03.564Z,15.03
2017-09-22T13:23:30.991Z,13.53
2017-09-22T13:25:59.170Z,15.87
2017-09-22T13:28:27.354Z,18.30
2017-09-22T13:30:55.151Z,24.60
2017-09-22T13:33:22.696Z,20.00
2017-09-22T13:35:50.118Z,26.07
2017-09-22T13:38:18.344Z,17.90
2017-09-22T13:40:45.815Z,21.80
2017-09-22T13:43:13.212Z,23.53
2017-09-22T13:45:40.631Z,27.03
2017-09-22T13:48:08.049Z,19.07
2017-09-22T13:50:36.019Z,16.63
2017-09-22T13:53:03.419Z,24.07
2017-09-22T13:55:30.940Z,24.40
2017-09-22T13:57:58.359Z,19.13
2017-09-22T14:00:25.790Z,22.10
2017-09-22T14:02:53.216Z,18.40
2017-09-22T14:05:20.647Z,23.10
2017-09-22T14:07:48.072Z,16.90
2017-09-22T14:10:16.262Z,20.57
2017-09-22T14:12:45.043Z,20.37
2017-09-22T14:15:12.458Z,26.47
2017-09-22T14:17:39.992Z,21.73
2017-09-22T14:20:07.444Z,24.90
2017-09-22T14:22:34.841Z,25.87
2017-09-22T14:25:02.257Z,29.00
2017-09-22T14:27:29.679Z,30.23
2017-09-22T14:29:57.876Z,31.90
2017-09-22T14:32:25.288Z,37.70
2017-09-22T14:34:52.751Z,28.83
2017-09-22T14:37:20.939Z,25.93
2017-09-22T14:39:49.118Z,23.43
2017-09-22T14:42:16.539Z,17.87
2017-09-22T14:44:45.461Z,17.43
2017-09-22T14:47:13.663Z,18.03
2017-09-22T14:49:41.079Z,16.83
2017-09-22T14:52:09.295Z,21.20
2017-09-22T14:54:37.076Z,24.60
2017-09-22T14:57:04.483Z,22.83
2017-09-22T14:59:31.899Z,27.70
2017-09-22T15:01:59.321Z,20.60
2017-09-22T15:04:26.742Z,23.80
2017-09-22T15:06:54.926Z,20.30
2017-09-22T15:09:23.107Z,21.90
2017-09-22T15:11:50.528Z,20.80
2017-09-22T15:14:17.939Z,23.07
2017-09-22T15:16:45.361Z,21.60
2017-09-22T15:19:13.550Z,21.13
2017-09-22T15:21:41.372Z,22.90
2017-09-22T15:24:10.324Z,22.90
2017-09-22T15:26:37.796Z,22.67
2017-09-22T15:29:05.568Z,22.90
2017-09-22T15:31:32.987Z,20.17
2017-09-22T15:34:00.394Z,21.73
2017-09-22T15:36:28.635Z,23.23
2017-09-22T15:38:56.094Z,19.13
2017-09-22T15:41:23.503Z,25.77
2017-09-22T15:43:51.687Z,22.20
2017-09-22T15:46:19.894Z,17.80
2017-09-22T15:48:47.286Z,17.80
2017-09-22T15:51:14.706Z,16.77
2017-09-22T15:53:42.110Z,19.07
2017-09-22T15:56:10.661Z,24.23
2017-09-22T15:58:38.098Z,16.93
2017-09-22T16:01:05.547Z,23.57
2017-09-22T16:03:32.963Z,21.33
2017-09-22T16:06:01.167Z,19.97
2017-09-22T16:08:28.578Z,27.23
2017-09-22T16:10:55.999Z,17.90
2017-09-22T16:13:23.418Z,21.00
2017-09-22T16:15:52.010Z,22.50
2017-09-22T16:18:19.434Z,21.97
2017-09-22T16:20:46.853Z,25.70
2017-09-22T16:23:14.299Z,25.10
2017-09-22T16:25:41.759Z,23.97
2017-09-22T16:28:09.168Z,22.07
2017-09-22T16:30:37.385Z,22.37
2017-09-22T16:33:04.803Z,23.53
2017-09-22T16:35:32.984Z,25.50
2017-09-22T16:38:01.172Z,27.27
2017-09-22T16:40:28.993Z,29.53
2017-09-22T16:42:56.411Z,29.13
2017-09-22T16:45:23.815Z,34.77
2017-09-22T16:47:51.319Z,27.40
2017-09-22T16:50:19.595Z,32.97
2017-09-22T16:52:47.007Z,30.47
2017-09-22T16:55:15.192Z,38.97
2017-09-22T16:57:43.395Z,34.33
2017-09-22T17:00:10.867Z,32.70
2017-09-22T17:02:38.264Z,37.00
2017-09-22T17:05:05.767Z,33.30
2017-09-22T17:07:33.187Z,32.63
2017-09-22T17:10:01.400Z,47.27
2017-09-22T17:12:28.832Z,41.63
2017-09-22T17:14:57.059Z,44.90
2017-09-22T17:17:24.485Z,38.80
2017-09-22T17:19:51.902Z,35.43
2017-09-22T17:22:20.078Z,52.33
2017-09-22T17:24:48.287Z,42.90
2017-09-22T17:27:15.706Z,36.83
2017-09-22T17:29:43.888Z,45.13
2017-09-22T17:32:12.074Z,38.03
2017-09-22T17:34:39.551Z,35.17
2017-09-22T17:37:06.963Z,41.80
2017-09-22T17:39:35.192Z,37.80
2017-09-22T17:42:02.617Z,40.87
2017-09-22T17:44:30.099Z,42.70
2017-09-22T17:46:57.527Z,36.60
2017-09-22T17:49:24.944Z,47.03
2017-09-22T17:51:52.363Z,40.70
2017-09-22T17:54:19.817Z,42.17
2017-09-22T17:56:48.027Z,45.93
2017-09-22T17:59:15.443Z,46.70
2017-09-22T18:01:42.860Z,41.33
2017-09-22T18:04:11.075Z,39.47
2017-09-22T18:06:38.543Z,43.50
2017-09-22T18:09:05.955Z,34.33
2017-09-22T18:11:34.151Z,41.30
2017-09-22T18:14:01.560Z,38.33
2017-09-22T18:16:29.259Z,43.37
2017-09-22T18:18:56.680Z,39.33
2017-09-22T18:21:24.196Z,40.50
2017-09-22T18:23:51.611Z,42.73
2017-09-22T18:26:19.823Z,51.67
2017-09-22T18:28:47.239Z,47.80
2017-09-22T18:31:15.446Z,41.10
2017-09-22T18:33:42.863Z,42.33
2017-09-22T18:36:11.048Z,41.50
2017-09-22T18:38:39.222Z,41.07
2017-09-22T18:41:07.407Z,47.03
2017-09-22T18:43:34.825Z,42.57
2017-09-22T18:46:02.243Z,48.40
2017-09-22T18:48:29.670Z,46.10
2017-09-22T18:50:57.858Z,49.83
2017-09-22T18:53:25.300Z,49.03
2017-09-22T18:55:52.734Z,46.40
2017-09-22T18:58:20.806Z,54.10
2017-09-22T19:00:48.296Z,45.23
2017-09-22T19:03:16.491Z,48.77
2017-09-22T19:05:44.811Z,51.77
2017-09-22T19:08:13.123Z,53.47
2017-09-22T19:10:41.321Z,49.27
2017-09-22T19:13:08.727Z,48.20
2017-09-22T19:15:36.952Z,49.50
2017-09-22T19:18:04.388Z,46.30
2017-09-22T19:20:31.838Z,47.90
2017-09-22T19:22:59.256Z,45.60
2017-09-22T19:25:26.767Z,45.40
2017-09-22T19:27:54.206Z,52.13
2017-09-22T19:30:21.727Z,56.50
2017-09-22T19:32:49.214Z,60.37
2017-09-22T19:35:17.511Z,59.07
2017-09-22T19:37:44.966Z,52.43
2017-09-22T19:40:13.198Z,54.27
2017-09-22T19:42:40.635Z,50.40
2017-09-22T19:45:08.094Z,50.87
2017-09-22T19:47:35.587Z,56.03
2017-09-22T19:50:04.511Z,72.30
2017-09-22T19:52:31.979Z,55.07
2017-09-22T19:54:59.451Z,53.63
2017-09-22T19:57:26.951Z,50.50
2017-09-22T19:59:54.494Z,61.83
2017-09-22T20:02:22.360Z,52.70
2017-09-22T20:04:49.899Z,58.53
2017-09-22T20:07:17.391Z,58.40
2017-09-22T20:09:46.490Z,274.77
2017-09-22T20:12:13.913Z,345.10
2017-09-22T20:14:41.335Z,508.40
2017-09-22T20:17:08.803Z,544.07
2017-09-22T20:19:36.278Z,506.97
2017-09-22T20:22:03.786Z,438.77
2017-09-22T20:24:32.004Z,268.07
2017-09-22T20:26:59.486Z,130.83
2017-09-22T20:29:26.922Z,89.67
2017-09-22T20:31:54.346Z,74.17
2017-09-22T20:34:21.824Z,63.43
2017-09-22T20:36:49.334Z,68.10
2017-09-22T20:39:16.754Z,67.77
2017-09-22T20:41:45.704Z,57.27
2017-09-22T20:44:13.180Z,51.83
2017-09-22T20:46:40.808Z,53.37
2017-09-22T20:49:08.981Z,55.20
2017-09-22T20:51:36.391Z,75.23
2017-09-22T20:54:03.931Z,64.17
2017-09-22T20:56:31.376Z,55.40
2017-09-22T20:58:58.850Z,59.83
2017-09-22T21:01:26.309Z,60.80
2017-09-22T21:03:53.694Z,69.23
2017-09-22T21:06:21.192Z,56.53
2017-09-22T21:08:48.687Z,63.93
2017-09-22T21:11:16.131Z,58.40
2017-09-22T21:13:43.592Z,64.87
2017-09-22T21:16:11.039Z,62.80
2017-09-22T21:18:39.326Z,62.47
2017-09-22T21:21:06.775Z,59.13
2017-09-22T21:23:34.214Z,54.90
2017-09-22T21:26:01.684Z,60.03
2017-09-22T21:28:29.143Z,57.23
2017-09-22T21:30:56.600Z,62.30
2017-09-22T21:33:24.061Z,73.93
2017-09-22T21:35:51.536Z,70.47
2017-09-22T21:38:23.764Z,65.87
2017-09-22T21:40:51.221Z,57.27
2017-09-22T21:43:18.675Z,57.93
2017-09-22T21:45:46.122Z,57.33
2017-09-22T21:48:13.552Z,61.90
2017-09-22T21:50:41.725Z,51.20
2017-09-22T21:53:09.902Z,55.50
2017-09-22T21:55:38.302Z,55.40
2017-09-22T21:58:05.714Z,52.57
2017-09-22T22:00:33.135Z,56.93
2017-09-22T22:03:06.294Z,55.47
2017-09-22T22:05:34.608Z,59.23
2017-09-22T22:08:02.326Z,55.20
2017-09-22T22:10:29.742Z,58.23
2017-09-22T22:12:57.258Z,50.43
2017-09-22T22:15:24.723Z,56.00
2017-09-22T22:17:52.147Z,54.23
2017-09-22T22:20:20.327Z,57.00
2017-09-22T22:22:47.742Z,55.77
2017-09-22T22:25:15.154Z,54.03
2017-09-22T22:27:43.231Z,59.43
2017-09-22T22:30:10.659Z,58.50
2017-09-22T22:32:38.834Z,63.00
2017-09-22T22:35:07.676Z,71.33
2017-09-22T22:37:35.899Z,61.83
2017-09-22T22:40:03.315Z,65.83
2017-09-22T22:42:30.944Z,64.23
2017-09-22T22:44:58.409Z,57.93
2017-09-22T22:47:25.830Z,64.73
2017-09-22T22:49:53.247Z,70.83
2017-09-22T22:52:20.671Z,57.00
2017-09-22T22:54:48.083Z,55.23
2017-09-22T22:57:16.273Z,59.93
2017-09-22T22:59:44.438Z,54.30
2017-09-22T23:02:12.639Z,56.77
2017-09-22T23:04:40.056Z,57.33
2017-09-22T23:07:08.273Z,79.73
2017-09-22T23:09:35.730Z,61.03
2017-09-22T23:12:03.147Z,60.03
2017-09-22T23:14:31.454Z,56.83
2017-09-22T23:16:58.870Z,62.10
2017-09-22T23:19:26.946Z,59.43
2017-09-22T23:21:55.121Z,53.00
2017-09-22T23:24:23.319Z,55.40
2017-09-22T23:26:50.793Z,59.60
2017-09-22T23:29:18.263Z,62.27
2017-09-22T23:31:45.683Z,62.70
2017-09-22T23:34:13.129Z,61.20
2017-09-22T23:36:40.522Z,53.30
2017-09-22T23:39:07.951Z,54.57
2017-09-22T23:41:36.114Z,55.37
2017-09-22T23:44:04.290Z,56.63
2017-09-22T23:46:31.723Z,59.70
2017-09-22T23:48:59.236Z,56.43
2017-09-22T23:51:26.655Z,58.30
2017-09-22T23:53:54.862Z,61.70
2017-09-22T23:56:22.274Z,50.47
2017-09-22T23:58:50.458Z,57.30
